createdAt,value
2022-11-25T00:00:39.026Z,18.00
2022-11-25T00:01:41.589Z,18.90
2022-11-25T00:02:44.988Z,18.80
2022-11-25T00:03:48.290Z,19.50
2022-11-25T00:04:53.244Z,19.20
2022-11-25T00:05:56.070Z,16.90
2022-11-25T00:06:59.033Z,16.00
2022-11-25T00:08:01.050Z,16.00
2022-11-25T00:09:06.114Z,16.90
2022-11-25T00:10:09.844Z,17.20
2022-11-25T00:11:12.280Z,15.30
2022-11-25T00:12:15.537Z,19.40
2022-11-25T00:13:18.323Z,15.30
2022-11-25T00:14:21.749Z,16.10
2022-11-25T00:15:23.910Z,17.50
2022-11-25T00:16:26.191Z,17.40
2022-11-25T00:17:48.116Z,14.80
2022-11-25T00:18:51.349Z,16.90
2022-11-25T00:19:53.727Z,17.90
2022-11-25T00:20:56.999Z,17.50
2022-11-25T00:21:59.710Z,13.70
2022-11-25T00:23:02.431Z,17.50
2022-11-25T00:24:06.652Z,17.40
2022-11-25T00:25:08.902Z,11.60
2022-11-25T00:26:12.693Z,17.20
2022-11-25T00:27:14.907Z,17.30
2022-11-25T00:28:17.503Z,16.70
2022-11-25T00:29:19.493Z,15.40
2022-11-25T00:30:22.124Z,15.00
2022-11-25T00:31:26.492Z,17.60
2022-11-25T00:32:29.452Z,16.80
2022-11-25T00:33:33.683Z,16.20
2022-11-25T00:34:36.908Z,17.80
2022-11-25T00:35:39.358Z,16.50
2022-11-25T00:36:41.994Z,16.20
2022-11-25T00:37:44.186Z,17.00
2022-11-25T00:38:46.673Z,16.70
2022-11-25T00:39:49.839Z,16.40
2022-11-25T00:40:52.544Z,14.55
2022-11-25T00:41:54.716Z,15.30
2022-11-25T00:42:57.126Z,15.10
2022-11-25T00:43:59.125Z,14.70
2022-11-25T00:45:01.746Z,16.40
2022-11-25T00:46:04.732Z,15.40
2022-11-25T00:47:15.631Z,14.90
2022-11-25T00:48:17.760Z,15.80
2022-11-25T00:49:19.944Z,13.80
2022-11-25T00:50:23.236Z,15.00
2022-11-25T00:51:25.392Z,14.40
2022-11-25T00:52:27.522Z,12.70
2022-11-25T00:53:31.741Z,17.90
2022-11-25T00:54:35.152Z,15.70
2022-11-25T00:55:37.554Z,15.80
2022-11-25T00:56:39.615Z,14.20
2022-11-25T00:57:42.796Z,15.60
2022-11-25T00:58:44.927Z,17.90
2022-11-25T00:59:47.368Z,13.70
2022-11-25T01:00:49.577Z,14.00
2022-11-25T01:01:51.958Z,14.50
2022-11-25T01:02:54.735Z,16.20
2022-11-25T01:03:57.526Z,11.36
2022-11-25T01:04:59.615Z,15.90
2022-11-25T01:06:03.666Z,12.90
2022-11-25T01:07:05.911Z,15.50
2022-11-25T01:08:09.743Z,13.60
2022-11-25T01:09:13.545Z,14.70
2022-11-25T01:10:15.780Z,14.60
2022-11-25T01:11:20.652Z,16.50
2022-11-25T01:12:23.286Z,15.70
2022-11-25T01:13:26.804Z,14.50
2022-11-25T01:14:31.385Z,16.80
2022-11-25T01:15:38.598Z,12.90
2022-11-25T01:16:41.046Z,13.80
2022-11-25T01:17:43.645Z,15.80
2022-11-25T01:18:47.781Z,15.00
2022-11-25T01:19:50.165Z,11.40
2022-11-25T01:20:55.477Z,13.70
2022-11-25T01:21:59.496Z,14.60
2022-11-25T01:23:02.151Z,17.20
2022-11-25T01:24:05.433Z,15.80
2022-11-25T01:25:08.898Z,14.70
2022-11-25T01:26:13.838Z,16.50
2022-11-25T01:27:16.106Z,14.70
2022-11-25T01:28:18.200Z,15.50
2022-11-25T01:29:21.192Z,14.27
2022-11-25T01:30:23.617Z,15.30
2022-11-25T01:31:27.270Z,13.20
2022-11-25T01:32:29.590Z,15.50
2022-11-25T01:33:31.898Z,13.90
2022-11-25T01:34:34.732Z,12.20
2022-11-25T01:35:37.802Z,13.70
2022-11-25T01:36:42.357Z,15.60
2022-11-25T01:37:45.412Z,14.90
2022-11-25T01:40:06.071Z,14.60
2022-11-25T01:41:09.930Z,14.90
2022-11-25T01:42:13.496Z,14.20
2022-11-25T01:43:16.291Z,13.82
2022-11-25T01:44:21.658Z,15.80
2022-11-25T01:46:57.328Z,10.50
2022-11-25T01:48:03.023Z,13.70
2022-11-25T01:49:06.778Z,14.60
2022-11-25T01:50:09.612Z,13.80
2022-11-25T06:55:22.186Z,26.50
2022-11-25T06:56:26.358Z,25.30
2022-11-25T06:57:29.160Z,26.40
2022-11-25T06:58:36.134Z,25.00
2022-11-25T06:59:36.325Z,25.90
2022-11-25T07:00:38.879Z,25.80
2022-11-25T07:01:41.517Z,26.10
2022-11-25T07:02:48.229Z,23.91
2022-11-25T07:03:49.049Z,20.40
2022-11-25T07:04:51.181Z,23.80
2022-11-25T07:05:56.004Z,26.60
2022-11-25T07:06:58.575Z,27.70
2022-11-25T07:08:01.209Z,27.30
2022-11-25T07:09:03.943Z,24.50
2022-11-25T07:10:08.692Z,27.50
2022-11-25T07:11:21.907Z,24.80
2022-11-25T07:12:24.324Z,24.90
2022-11-25T07:13:28.140Z,25.20
2022-11-25T07:14:30.444Z,28.64
2022-11-25T07:15:33.995Z,25.50
2022-11-25T07:16:37.155Z,24.70
2022-11-25T07:17:39.288Z,26.50
2022-11-25T07:18:42.316Z,27.30
2022-11-25T07:19:44.823Z,25.40
2022-11-25T07:20:46.932Z,22.30
2022-11-25T07:21:49.028Z,28.00
2022-11-25T07:22:51.744Z,29.10
2022-11-25T07:23:53.870Z,24.00
2022-11-25T07:24:55.997Z,24.70
2022-11-25T07:26:06.381Z,26.60
2022-11-25T07:27:09.660Z,29.40
2022-11-25T07:28:11.894Z,24.70
2022-11-25T07:29:54.167Z,22.10
2022-11-25T07:31:09.841Z,24.70
2022-11-25T07:32:42.869Z,23.80
2022-11-25T07:33:45.662Z,24.90
2022-11-25T07:34:50.290Z,25.09
2022-11-25T07:35:52.576Z,24.10
2022-11-25T07:36:54.936Z,14.70
2022-11-25T07:37:57.665Z,24.50
2022-11-25T07:39:00.940Z,23.18
2022-11-25T07:40:04.954Z,27.20
2022-11-25T07:41:08.701Z,24.70
2022-11-25T07:42:10.930Z,25.60
2022-11-25T07:43:13.080Z,20.70
2022-11-25T07:44:15.467Z,23.30
2022-11-25T07:45:20.379Z,24.20
2022-11-25T07:46:27.723Z,20.40
2022-11-25T07:47:33.605Z,21.10
2022-11-25T07:48:35.732Z,21.10
2022-11-25T07:49:38.322Z,24.30
2022-11-25T07:50:40.902Z,25.27
2022-11-25T07:51:54.599Z,24.40
2022-11-25T07:52:57.088Z,17.40
2022-11-25T07:53:59.870Z,22.50
2022-11-25T07:55:02.926Z,22.09
2022-11-25T07:56:06.061Z,19.90
2022-11-25T07:57:08.211Z,23.50
2022-11-25T07:58:11.350Z,19.40
2022-11-25T07:59:15.394Z,24.10
2022-11-25T08:00:18.568Z,23.50
2022-11-25T08:01:20.941Z,23.90
2022-11-25T08:02:23.277Z,21.80
2022-11-25T08:03:25.714Z,24.80
2022-11-25T08:04:29.101Z,21.90
2022-11-25T08:05:33.179Z,24.60
2022-11-25T08:06:39.739Z,22.40
2022-11-25T08:07:42.008Z,26.00
2022-11-25T08:08:44.243Z,21.00
2022-11-25T08:09:46.329Z,23.00
2022-11-25T08:10:48.536Z,22.40
2022-11-25T08:11:54.728Z,23.50
2022-11-25T08:12:57.055Z,21.50
2022-11-25T08:13:59.688Z,20.00
2022-11-25T08:15:02.004Z,21.50
2022-11-25T08:16:05.026Z,22.50
2022-11-25T08:17:07.397Z,20.73
2022-11-25T08:18:09.569Z,20.90
2022-11-25T08:19:14.217Z,22.30
2022-11-25T08:21:29.553Z,20.30
2022-11-25T08:22:31.569Z,20.10
2022-11-25T08:23:33.786Z,22.50
2022-11-25T08:24:35.889Z,19.30
2022-11-25T08:25:43.034Z,19.20
2022-11-25T08:26:45.667Z,20.10
2022-11-25T08:27:48.845Z,22.60
2022-11-25T08:28:52.077Z,22.30
2022-11-25T08:29:54.792Z,20.80
2022-11-25T08:31:05.798Z,20.73
2022-11-25T08:32:11.960Z,21.00
2022-11-25T08:33:13.068Z,23.60
2022-11-25T08:34:19.766Z,16.40
2022-11-25T08:35:24.094Z,21.70
2022-11-25T08:36:28.173Z,22.30
2022-11-25T08:37:30.909Z,21.40
2022-11-25T08:38:33.383Z,22.18
2022-11-25T08:39:51.844Z,22.00
2022-11-25T08:40:42.910Z,18.80
2022-11-25T08:41:46.555Z,20.80
2022-11-25T08:42:49.422Z,22.10
2022-11-25T08:43:52.418Z,20.64
2022-11-25T08:44:55.105Z,22.82
2022-11-25T08:45:57.202Z,21.60
2022-11-25T08:46:59.532Z,20.50
2022-11-25T08:48:01.767Z,21.00
2022-11-25T08:49:04.738Z,22.60
2022-11-25T08:50:09.754Z,17.70
2022-11-25T08:51:13.979Z,20.20
2022-11-25T08:52:16.573Z,22.60
2022-11-25T08:53:20.549Z,18.18
2022-11-25T08:54:22.783Z,20.80
2022-11-25T08:55:25.298Z,20.70
2022-11-25T08:56:27.490Z,20.20
2022-11-25T08:57:30.537Z,22.10
2022-11-25T08:58:33.739Z,21.30
2022-11-25T08:59:36.808Z,22.20
2022-11-25T09:00:40.503Z,19.00
2022-11-25T09:01:43.216Z,19.90
2022-11-25T09:02:46.544Z,20.60
2022-11-25T09:03:51.132Z,21.00
2022-11-25T09:04:53.210Z,21.40
2022-11-25T09:05:55.859Z,20.20
2022-11-25T09:06:58.201Z,21.00
2022-11-25T09:08:00.573Z,22.00
2022-11-25T09:09:03.611Z,22.64
2022-11-25T09:10:07.831Z,15.20
2022-11-25T09:11:10.739Z,15.80
2022-11-25T09:12:13.485Z,19.80
2022-11-25T09:13:16.160Z,24.10
2022-11-25T09:14:18.709Z,23.40
2022-11-25T09:15:20.767Z,23.20
2022-11-25T09:16:23.074Z,24.20
2022-11-25T09:17:25.312Z,23.90
2022-11-25T09:18:27.340Z,20.22
2022-11-25T09:19:29.364Z,28.10
2022-11-25T09:20:32.046Z,24.00
2022-11-25T09:21:34.147Z,25.50
2022-11-25T09:22:36.241Z,23.30
2022-11-25T09:23:39.636Z,19.90
2022-11-25T09:24:41.883Z,24.30
2022-11-25T09:25:55.418Z,28.10
2022-11-25T09:26:57.759Z,24.00
2022-11-25T09:27:59.851Z,25.70
2022-11-25T09:29:02.349Z,24.80
2022-11-25T09:30:06.255Z,23.70
2022-11-25T09:31:08.860Z,26.70
2022-11-25T09:32:11.155Z,23.91
2022-11-25T09:33:13.723Z,23.60
2022-11-25T09:34:16.429Z,24.18
2022-11-25T09:35:18.827Z,22.50
2022-11-25T09:36:21.779Z,24.20
2022-11-25T09:37:24.898Z,24.55
2022-11-25T09:38:27.614Z,20.27
2022-11-25T09:39:30.204Z,19.40
2022-11-25T09:40:36.186Z,24.50
2022-11-25T09:41:47.878Z,25.50
2022-11-25T09:42:58.772Z,25.30
2022-11-25T09:44:05.211Z,24.30
2022-11-25T09:45:26.196Z,22.30
2022-11-25T09:46:38.373Z,24.50
2022-11-25T09:48:16.872Z,22.90
2022-11-25T09:49:31.703Z,26.50
2022-11-25T09:51:06.780Z,15.30
2022-11-25T09:52:29.531Z,23.30
2022-11-25T09:53:44.365Z,26.20
2022-11-25T09:54:56.886Z,18.20
2022-11-25T09:56:02.327Z,25.60
2022-11-25T09:57:25.988Z,20.50
2022-11-25T09:58:40.606Z,21.50
2022-11-25T10:00:07.834Z,20.40
2022-11-25T10:01:20.162Z,21.70
2022-11-25T10:03:42.926Z,22.40
2022-11-25T10:04:54.998Z,25.40
2022-11-25T10:07:22.727Z,22.30
2022-11-25T10:08:28.071Z,21.20
2022-11-25T10:09:34.441Z,2.60
2022-11-25T10:10:45.996Z,23.50
2022-11-25T10:11:54.026Z,23.20
2022-11-25T10:12:57.104Z,21.90
2022-11-25T14:15:41.681Z,21.70
2022-11-25T14:16:59.407Z,20.80
2022-11-25T14:19:03.257Z,16.00
2022-11-25T14:19:57.883Z,18.90
2022-11-25T14:22:25.105Z,17.80
2022-11-25T14:23:43.802Z,18.80
2022-11-25T14:24:47.859Z,18.40
2022-11-25T14:25:52.722Z,18.40
2022-11-25T14:26:55.829Z,17.60
2022-11-25T14:28:09.888Z,18.60
2022-11-25T14:30:30.000Z,16.40
2022-11-25T14:31:35.463Z,16.70
2022-11-25T14:32:42.025Z,17.30
2022-11-25T14:35:12.592Z,15.20
2022-11-25T14:37:39.300Z,15.50
2022-11-25T14:40:09.429Z,18.40
2022-11-25T14:41:20.875Z,13.40
2022-11-25T14:42:24.285Z,19.80
2022-11-25T14:43:26.662Z,15.10
2022-11-25T14:44:46.904Z,17.90
2022-11-25T14:47:34.594Z,19.90
2022-11-25T14:48:35.229Z,16.50
2022-11-25T14:51:05.755Z,19.40
2022-11-25T14:52:08.101Z,17.00
2022-11-25T14:53:10.748Z,17.20
2022-11-25T14:54:16.153Z,18.40
2022-11-25T14:55:29.952Z,20.80
2022-11-25T14:56:33.986Z,20.20
2022-11-25T14:57:40.476Z,11.60
2022-11-25T14:58:47.932Z,18.40
2022-11-25T14:59:51.148Z,16.20
2022-11-25T15:01:01.846Z,17.30
2022-11-25T15:02:04.137Z,18.60
2022-11-25T15:03:06.288Z,18.40
2022-11-25T15:04:23.318Z,18.30
2022-11-25T15:06:57.692Z,20.20
2022-11-25T15:08:02.501Z,17.80
2022-11-25T15:09:20.197Z,17.00
2022-11-25T15:10:41.527Z,16.50
2022-11-25T15:11:43.734Z,15.70
2022-11-25T15:12:50.058Z,15.10
2022-11-25T15:14:04.053Z,14.60
2022-11-25T15:15:10.025Z,11.60
2022-11-25T15:16:17.348Z,14.90
2022-11-25T15:17:32.477Z,14.10
2022-11-25T15:18:34.742Z,14.00
2022-11-25T15:19:37.818Z,17.00
2022-11-25T15:20:40.260Z,15.82
2022-11-25T15:22:14.571Z,14.80
2022-11-25T15:24:00.912Z,15.70
2022-11-25T15:25:08.705Z,17.20
2022-11-25T15:27:34.796Z,16.50
2022-11-25T15:28:37.560Z,14.00
2022-11-25T15:31:18.307Z,15.40
2022-11-25T15:32:28.213Z,18.60
2022-11-25T15:33:30.828Z,15.80
2022-11-25T15:34:34.625Z,18.20
2022-11-25T15:35:37.405Z,18.70
2022-11-25T15:36:40.692Z,15.20
2022-11-25T15:37:43.795Z,18.30
2022-11-25T15:38:47.142Z,17.30
2022-11-25T15:39:50.107Z,14.40
2022-11-25T15:40:55.207Z,17.90
2022-11-25T15:42:03.853Z,17.20
2022-11-25T15:45:48.603Z,15.50
2022-11-25T15:48:06.227Z,15.30
2022-11-25T15:49:12.491Z,15.60
2022-11-25T15:50:25.405Z,15.80
2022-11-25T15:51:54.808Z,15.00
2022-11-25T15:52:58.386Z,15.10
2022-11-25T15:54:23.320Z,15.90
2022-11-25T15:55:32.143Z,14.30
2022-11-25T15:56:37.980Z,13.20
2022-11-25T15:57:40.145Z,15.10
2022-11-25T15:58:43.591Z,15.64
2022-11-25T15:59:47.914Z,15.70
2022-11-25T16:02:44.362Z,16.40
2022-11-25T16:03:47.106Z,14.50
2022-11-25T16:04:49.970Z,16.10
2022-11-25T16:05:53.306Z,18.00
2022-11-25T16:06:56.744Z,17.10
2022-11-25T16:08:20.384Z,15.30
2022-11-25T16:09:24.050Z,17.40
2022-11-25T16:10:33.258Z,16.80
2022-11-25T16:11:39.097Z,14.20
2022-11-25T16:12:41.422Z,14.90
2022-11-25T16:13:43.644Z,16.40
2022-11-25T16:14:46.051Z,17.70
2022-11-25T16:15:58.117Z,19.40
2022-11-25T16:17:03.514Z,21.90
2022-11-25T16:18:32.287Z,12.30
2022-11-25T16:19:15.994Z,23.60
2022-11-25T16:20:18.871Z,22.40
2022-11-25T16:22:37.971Z,14.80
2022-11-25T16:23:43.347Z,17.33
2022-11-25T16:24:57.300Z,19.20
2022-11-25T16:26:01.007Z,18.50
2022-11-25T16:27:22.720Z,18.40
2022-11-25T16:28:27.374Z,18.90
2022-11-25T16:29:51.486Z,17.70
2022-11-25T16:30:57.845Z,19.50
2022-11-25T16:31:59.435Z,19.10
2022-11-25T16:33:01.731Z,18.10
2022-11-25T16:34:19.416Z,19.20
2022-11-25T16:35:22.896Z,17.40
2022-11-25T16:36:26.402Z,20.30
2022-11-25T16:37:29.010Z,12.50
2022-11-25T16:38:31.651Z,18.70
2022-11-25T16:39:33.763Z,18.80
2022-11-25T16:40:36.657Z,18.80
2022-11-25T16:41:39.686Z,10.73
2022-11-25T16:42:46.511Z,16.60
2022-11-25T16:43:50.652Z,18.10
2022-11-25T16:44:53.121Z,19.40
2022-11-25T16:45:55.259Z,18.80
2022-11-25T16:46:58.719Z,18.10
2022-11-25T16:48:00.867Z,18.70
2022-11-25T16:49:16.767Z,21.00
2022-11-25T16:50:20.224Z,19.50
2022-11-25T16:51:23.361Z,15.27
2022-11-25T16:52:25.835Z,22.30
2022-11-25T16:53:28.268Z,18.45
2022-11-25T16:54:31.416Z,22.40
2022-11-25T16:55:33.540Z,21.20
2022-11-25T16:56:37.019Z,18.10
2022-11-25T16:57:40.424Z,19.80
2022-11-25T16:58:42.977Z,17.20
2022-11-25T16:59:46.291Z,19.50
2022-11-25T17:00:54.491Z,22.10
2022-11-25T17:01:56.850Z,20.90
2022-11-25T17:03:00.304Z,15.60
2022-11-25T17:04:03.930Z,17.70
2022-11-25T17:05:18.961Z,19.30
2022-11-25T17:06:23.442Z,21.00
2022-11-25T17:07:33.075Z,19.60
2022-11-25T17:08:32.717Z,21.20
2022-11-25T17:09:34.973Z,11.91
2022-11-25T17:10:37.364Z,20.40
2022-11-25T17:13:02.571Z,20.20
2022-11-25T17:14:08.694Z,17.90
2022-11-25T17:15:17.662Z,21.90
2022-11-25T17:16:25.456Z,19.40
2022-11-25T17:17:27.912Z,22.10
2022-11-25T17:18:30.115Z,17.60
2022-11-25T17:19:34.431Z,20.60
2022-11-25T17:20:36.937Z,21.80
2022-11-25T17:21:39.598Z,15.50
2022-11-25T17:22:43.752Z,20.91
2022-11-25T17:23:50.129Z,19.50
2022-11-25T17:24:51.446Z,20.50
2022-11-25T17:25:53.527Z,19.20
2022-11-25T17:27:02.809Z,22.70
2022-11-25T17:28:05.879Z,23.20
2022-11-25T17:29:14.723Z,18.80
2022-11-25T17:30:20.164Z,20.20
2022-11-25T17:31:25.232Z,20.00
2022-11-25T17:32:27.470Z,21.50
2022-11-25T17:33:33.534Z,19.50
2022-11-25T17:34:39.477Z,21.60
2022-11-25T17:35:39.711Z,22.40
2022-11-25T17:36:43.238Z,24.10
2022-11-25T17:37:45.894Z,21.90
2022-11-25T17:38:47.981Z,21.30
2022-11-25T17:39:51.403Z,20.40
2022-11-25T17:40:53.983Z,25.70
2022-11-25T17:41:56.050Z,22.10
2022-11-25T17:42:59.331Z,23.60
2022-11-25T17:44:02.940Z,27.50
2022-11-25T17:45:15.728Z,26.10
2022-11-25T17:46:19.210Z,27.00
2022-11-25T17:47:22.678Z,24.40
2022-11-25T17:48:24.978Z,26.60
2022-11-25T17:49:28.638Z,20.00
2022-11-25T17:50:31.032Z,25.55
2022-11-25T17:51:33.927Z,25.50
2022-11-25T17:52:36.761Z,25.40
2022-11-25T17:53:39.458Z,26.20
2022-11-25T17:54:41.546Z,22.40
2022-11-25T17:55:44.609Z,23.33
2022-11-25T17:56:52.042Z,29.20
2022-11-25T17:57:51.774Z,31.90
2022-11-25T17:58:54.745Z,33.45
2022-11-25T17:59:58.155Z,33.40
2022-11-25T18:01:00.817Z,27.30
2022-11-25T18:03:21.051Z,23.20
2022-11-25T18:04:28.048Z,28.20
2022-11-25T18:05:30.743Z,28.40
2022-11-25T18:06:33.140Z,24.64
2022-11-25T18:07:37.459Z,25.50
2022-11-25T18:08:40.678Z,24.40
2022-11-25T18:09:43.268Z,19.90
2022-11-25T18:10:46.026Z,25.45
2022-11-25T18:11:50.450Z,25.80
2022-11-25T18:12:53.782Z,18.30
2022-11-25T18:13:55.857Z,26.50
2022-11-25T18:14:57.989Z,24.70
2022-11-25T18:16:00.994Z,22.45
2022-11-25T18:17:05.272Z,21.50
2022-11-25T18:18:18.027Z,24.90
2022-11-25T18:19:20.419Z,23.20
2022-11-25T18:20:24.793Z,24.10
2022-11-25T18:21:28.791Z,21.40
2022-11-25T18:22:30.954Z,22.60
2022-11-25T18:23:35.043Z,25.50
2022-11-25T18:24:37.715Z,20.90
2022-11-25T18:25:43.213Z,25.70
2022-11-25T18:26:48.189Z,23.70
2022-11-25T18:27:51.655Z,26.60
2022-11-25T18:28:54.322Z,23.40
2022-11-25T18:29:57.117Z,24.50
2022-11-25T18:31:02.064Z,22.60
2022-11-25T18:32:04.864Z,24.40
2022-11-25T18:34:25.818Z,24.80
2022-11-25T18:35:35.812Z,24.00
2022-11-25T18:36:34.560Z,21.50
2022-11-25T18:37:38.014Z,24.09
2022-11-25T18:38:40.196Z,22.00
2022-11-25T18:39:42.276Z,25.50
2022-11-25T18:40:51.846Z,16.20
2022-11-25T18:41:49.684Z,24.20
2022-11-25T18:42:53.903Z,27.00
2022-11-25T18:43:58.824Z,25.60
2022-11-25T18:45:02.345Z,24.00
2022-11-25T18:46:05.054Z,24.80
2022-11-25T18:47:12.657Z,20.64
2022-11-25T18:48:17.679Z,23.10
2022-11-25T18:49:20.116Z,25.60
2022-11-25T18:50:26.208Z,26.60
2022-11-25T18:51:29.334Z,25.20
2022-11-25T18:52:31.506Z,25.60
2022-11-25T18:53:34.656Z,25.00
2022-11-25T22:51:10.472Z,29.60
2022-11-25T22:52:27.029Z,28.40
2022-11-25T22:53:29.220Z,28.60
2022-11-25T22:54:32.395Z,21.50
2022-11-25T22:55:34.559Z,17.55
2022-11-25T22:56:36.772Z,17.50
2022-11-25T22:57:39.701Z,17.45
2022-11-25T22:58:41.775Z,18.50
2022-11-25T22:59:44.389Z,18.20
2022-11-25T23:00:46.593Z,17.10
2022-11-25T23:01:48.719Z,19.40
2022-11-25T23:02:51.611Z,17.40
2022-11-25T23:03:54.483Z,17.20
2022-11-25T23:04:56.994Z,11.70
2022-11-25T23:06:01.321Z,17.00
2022-11-25T23:07:06.869Z,15.30
2022-11-25T23:08:15.803Z,12.20
2022-11-25T23:09:19.144Z,16.10
2022-11-25T23:10:23.406Z,18.20
2022-11-25T23:11:25.516Z,18.30
2022-11-25T23:12:27.608Z,14.10
2022-11-25T23:13:32.597Z,14.20
2022-11-25T23:14:35.751Z,15.40
2022-11-25T23:15:39.520Z,18.00
2022-11-25T23:16:42.727Z,16.90
2022-11-25T23:19:03.408Z,14.50
2022-11-25T23:20:12.282Z,13.80
2022-11-25T23:21:19.133Z,14.10
2022-11-25T23:22:22.393Z,14.50
2022-11-25T23:23:25.955Z,14.73
2022-11-25T23:24:28.140Z,16.10
2022-11-25T23:25:31.180Z,16.00
2022-11-25T23:26:35.171Z,16.40
2022-11-25T23:27:37.591Z,15.40
2022-11-25T23:28:40.492Z,16.40
2022-11-25T23:29:42.784Z,11.90
2022-11-25T23:30:56.590Z,13.90
2022-11-25T23:32:00.842Z,14.10
2022-11-25T23:33:04.795Z,16.10
2022-11-25T23:34:09.461Z,14.60
2022-11-25T23:35:23.437Z,16.00
2022-11-25T23:36:32.511Z,15.50
2022-11-25T23:37:34.801Z,13.70
2022-11-25T23:39:53.887Z,12.80
2022-11-25T23:40:57.401Z,10.60
2022-11-25T23:41:59.695Z,12.90
2022-11-25T23:43:02.275Z,14.30
2022-11-25T23:45:28.028Z,12.70
2022-11-25T23:46:32.397Z,15.20
2022-11-25T23:47:34.548Z,14.70
2022-11-25T23:48:36.640Z,12.90
2022-11-25T23:49:40.171Z,14.30
2022-11-25T23:50:42.437Z,12.80
2022-11-25T23:51:46.035Z,15.00
2022-11-25T23:52:49.775Z,12.20
2022-11-25T23:53:51.929Z,13.50
2022-11-25T23:54:55.115Z,15.10
2022-11-25T23:55:57.649Z,14.20
2022-11-25T23:56:59.719Z,15.70
2022-11-25T23:58:03.298Z,15.70
2022-11-25T23:59:14.629Z,16.30
